createdAt,value
2023-03-20T00:01:00.997Z,10.50
2023-03-20T00:03:29.167Z,10.50
2023-03-20T00:05:57.311Z,10.50
2023-03-20T00:08:27.888Z,10.40
2023-03-20T00:10:57.422Z,10.40
2023-03-20T00:13:29.188Z,10.40
2023-03-20T00:15:57.695Z,10.30
2023-03-20T00:18:26.588Z,10.30
2023-03-20T00:20:54.731Z,10.30
2023-03-20T00:23:22.876Z,10.30
2023-03-20T00:25:51.296Z,10.20
2023-03-20T00:28:42.107Z,10.20
2023-03-20T00:31:25.345Z,10.10
2023-03-20T00:33:56.092Z,10.10
2023-03-20T00:36:24.527Z,10.10
2023-03-20T00:38:53.209Z,10.10
2023-03-20T00:41:29.477Z,10.10
2023-03-20T00:44:03.427Z,10.10
2023-03-20T00:46:40.647Z,10.00
2023-03-20T00:49:12.647Z,10.00
2023-03-20T00:51:42.461Z,10.00
2023-03-20T00:54:14.779Z,10.00
2023-03-20T00:56:46.857Z,10.00
2023-03-20T00:59:21.493Z,10.00
2023-03-20T01:01:50.043Z,10.00
2023-03-20T01:04:21.147Z,9.90
2023-03-20T01:06:49.487Z,9.90
2023-03-20T01:09:17.907Z,9.90
2023-03-20T01:11:47.122Z,9.90
2023-03-20T01:14:17.995Z,9.80
2023-03-20T01:16:46.390Z,9.80
2023-03-20T01:19:16.661Z,9.70
2023-03-20T01:21:45.388Z,9.70
2023-03-20T01:24:13.539Z,9.60
2023-03-20T01:26:43.950Z,9.50
2023-03-20T01:29:22.061Z,9.50
2023-03-20T01:31:51.340Z,9.40
2023-03-20T01:34:21.641Z,9.30
2023-03-20T01:36:53.806Z,9.30
2023-03-20T01:39:24.489Z,9.20
2023-03-20T01:41:54.728Z,9.20
2023-03-20T01:44:30.357Z,9.10
2023-03-20T01:47:02.402Z,9.10
2023-03-20T01:50:22.216Z,9.10
2023-03-20T01:52:58.497Z,9.00
2023-03-20T01:55:27.700Z,9.00
2023-03-20T01:58:08.121Z,9.00
2023-03-20T02:00:38.816Z,9.00
2023-03-20T02:03:13.362Z,9.00
2023-03-20T02:06:17.576Z,9.00
2023-03-20T02:09:16.676Z,9.00
2023-03-20T02:11:47.696Z,9.00
2023-03-20T02:14:18.101Z,9.00
2023-03-20T02:16:55.713Z,9.10
2023-03-20T02:19:51.479Z,9.10
2023-03-20T02:23:17.507Z,9.10
2023-03-20T02:26:13.591Z,9.10
2023-03-20T02:29:39.185Z,9.20
2023-03-20T02:33:01.123Z,9.20
2023-03-20T02:36:11.182Z,9.20
2023-03-20T02:39:19.001Z,9.20
2023-03-20T02:41:55.987Z,9.30
2023-03-20T02:44:33.882Z,9.30
2023-03-20T02:47:12.240Z,9.30
2023-03-20T02:49:58.848Z,9.40
2023-03-20T02:52:38.368Z,9.40
2023-03-20T02:55:18.081Z,9.40
2023-03-20T02:58:01.063Z,9.40
2023-03-20T03:00:35.528Z,9.40
2023-03-20T03:03:12.407Z,9.40
2023-03-20T03:05:50.239Z,9.40
2023-03-20T03:08:23.409Z,9.30
2023-03-20T03:11:02.009Z,9.30
2023-03-20T03:13:35.202Z,9.30
2023-03-20T03:16:11.789Z,9.20
2023-03-20T03:18:42.867Z,9.10
2023-03-20T03:21:16.357Z,9.00
2023-03-20T03:23:48.661Z,9.00
2023-03-20T03:26:23.762Z,9.00
2023-03-20T03:28:57.230Z,9.00
2023-03-20T03:31:27.890Z,8.90
2023-03-20T03:33:59.654Z,8.90
2023-03-20T03:36:42.910Z,8.90
2023-03-20T03:39:26.445Z,8.90
2023-03-20T03:42:09.953Z,8.90
2023-03-20T03:44:48.800Z,8.90
2023-03-20T03:47:25.407Z,8.90
2023-03-20T03:49:59.882Z,8.90
2023-03-20T03:52:33.051Z,8.90
2023-03-20T03:55:09.708Z,8.90
2023-03-20T03:57:46.697Z,8.90
2023-03-20T04:00:22.907Z,8.90
2023-03-20T04:02:56.595Z,8.90
2023-03-20T04:05:33.142Z,8.90
2023-03-20T04:08:04.402Z,8.90
2023-03-20T04:10:32.724Z,8.90
2023-03-20T04:13:03.211Z,8.90
2023-03-20T04:15:32.045Z,8.90
2023-03-20T04:18:00.525Z,8.90
2023-03-20T04:20:29.520Z,8.90
2023-03-20T04:22:57.749Z,8.80
2023-03-20T04:25:27.834Z,8.80
2023-03-20T04:27:57.804Z,8.80
2023-03-20T04:30:48.184Z,8.80
2023-03-20T04:33:24.626Z,8.80
2023-03-20T04:36:07.881Z,8.80
2023-03-20T04:38:36.142Z,8.80
2023-03-20T04:41:04.795Z,8.80
2023-03-20T04:43:33.379Z,8.80
2023-03-20T04:46:03.120Z,8.80
2023-03-20T04:48:31.452Z,8.80
2023-03-20T04:51:00.290Z,8.80
2023-03-20T04:53:41.044Z,8.80
2023-03-20T04:56:10.238Z,8.80
2023-03-20T04:58:38.933Z,8.80
2023-03-20T05:01:08.959Z,8.80
2023-03-20T05:03:37.240Z,8.80
2023-03-20T05:06:06.392Z,8.90
2023-03-20T05:08:34.832Z,8.90
2023-03-20T05:11:03.405Z,8.90
2023-03-20T05:13:54.637Z,8.90
2023-03-20T05:16:38.004Z,8.90
2023-03-20T05:19:21.628Z,9.00
2023-03-20T05:22:08.278Z,9.00
2023-03-20T05:24:54.881Z,9.00
2023-03-20T05:27:37.383Z,9.00
2023-03-20T05:30:07.408Z,9.00
2023-03-20T05:32:59.896Z,9.10
2023-03-20T05:35:28.156Z,9.10
2023-03-20T05:38:22.594Z,9.10
2023-03-20T05:41:13.920Z,9.20
2023-03-20T05:44:21.058Z,9.20
2023-03-20T05:47:00.352Z,9.30
2023-03-20T05:49:44.446Z,9.30
2023-03-20T05:52:33.029Z,9.40
2023-03-20T05:55:19.191Z,9.40
2023-03-20T05:57:57.077Z,9.50
2023-03-20T06:00:43.823Z,9.50
2023-03-20T06:03:34.967Z,9.50
2023-03-20T06:06:12.209Z,9.60
2023-03-20T06:08:41.154Z,9.60
2023-03-20T06:11:09.836Z,9.70
2023-03-20T06:13:40.234Z,9.70
2023-03-20T06:16:09.900Z,9.80
2023-03-20T06:18:39.372Z,9.80
2023-03-20T06:21:12.797Z,9.80
2023-03-20T06:23:41.722Z,9.90
2023-03-20T06:26:11.919Z,9.90
2023-03-20T06:28:54.247Z,9.90
2023-03-20T06:31:22.460Z,10.00
2023-03-20T06:33:50.921Z,10.00
2023-03-20T06:36:20.576Z,10.00
2023-03-20T06:38:53.547Z,10.10
2023-03-20T06:41:33.819Z,10.10
2023-03-20T06:44:06.778Z,10.10
2023-03-20T06:46:55.036Z,10.20
2023-03-20T06:49:23.629Z,10.20
2023-03-20T06:51:53.245Z,10.30
2023-03-20T06:54:26.550Z,10.40
2023-03-20T06:56:55.722Z,10.40
2023-03-20T06:59:24.557Z,10.50
2023-03-20T07:01:58.184Z,10.60
2023-03-20T07:04:27.590Z,10.70
2023-03-20T07:07:00.655Z,10.70
2023-03-20T07:09:28.993Z,10.80
2023-03-20T07:11:57.406Z,10.90
2023-03-20T07:14:25.808Z,10.90
2023-03-20T07:17:01.755Z,11.00
2023-03-20T07:19:30.668Z,11.10
2023-03-20T07:22:04.297Z,11.20
2023-03-20T07:24:39.978Z,11.30
2023-03-20T07:27:08.260Z,11.40
2023-03-20T07:29:37.719Z,11.50
2023-03-20T07:32:12.078Z,11.60
2023-03-20T07:34:45.599Z,11.70
2023-03-20T07:37:15.576Z,11.80
2023-03-20T07:39:49.182Z,11.90
2023-03-20T07:42:32.533Z,11.90
2023-03-20T07:45:10.057Z,12.00
2023-03-20T07:47:39.237Z,12.00
2023-03-20T07:50:08.500Z,12.00
2023-03-20T07:52:38.423Z,12.10
2023-03-20T07:55:07.579Z,12.20
2023-03-20T07:57:35.790Z,12.20
2023-03-20T08:00:04.694Z,12.30
2023-03-20T08:02:39.936Z,12.40
2023-03-20T08:05:09.354Z,12.50
2023-03-20T08:07:39.513Z,12.40
2023-03-20T08:10:10.966Z,12.50
2023-03-20T08:12:39.302Z,12.50
2023-03-20T08:15:08.679Z,12.60
2023-03-20T08:17:36.960Z,12.70
2023-03-20T08:20:07.128Z,12.80
2023-03-20T08:22:35.321Z,12.90
2023-03-20T08:25:05.356Z,12.90
2023-03-20T08:27:33.569Z,13.10
2023-03-20T08:30:01.748Z,13.20
2023-03-20T08:32:29.959Z,13.20
2023-03-20T08:34:58.104Z,13.30
2023-03-20T08:37:26.245Z,13.40
2023-03-20T08:39:54.618Z,13.20
2023-03-20T08:42:24.284Z,13.20
2023-03-20T08:44:52.604Z,13.20
2023-03-20T08:47:20.895Z,13.20
2023-03-20T08:49:49.243Z,13.30
2023-03-20T08:52:17.570Z,13.40
2023-03-20T08:54:45.855Z,13.50
2023-03-20T08:57:14.194Z,13.60
2023-03-20T08:59:44.076Z,13.70
2023-03-20T09:02:12.902Z,13.80
2023-03-20T09:04:41.411Z,13.90
2023-03-20T09:07:09.737Z,13.90
2023-03-20T09:09:37.982Z,14.00
2023-03-20T09:12:07.383Z,14.10
2023-03-20T09:14:36.432Z,14.10
2023-03-20T09:17:06.241Z,14.20
2023-03-20T09:19:35.189Z,14.20
2023-03-20T09:22:03.451Z,14.30
2023-03-20T09:24:32.875Z,14.30
2023-03-20T09:27:03.584Z,14.20
2023-03-20T09:29:32.068Z,14.20
2023-03-20T09:32:00.394Z,14.20
2023-03-20T09:34:30.262Z,14.20
2023-03-20T09:36:58.608Z,14.10
2023-03-20T09:39:27.135Z,14.10
2023-03-20T09:41:57.780Z,14.10
2023-03-20T09:44:47.019Z,14.20
2023-03-20T09:47:25.557Z,14.40
2023-03-20T09:50:14.061Z,14.70
2023-03-20T09:52:50.160Z,14.80
2023-03-20T09:55:26.499Z,14.80
2023-03-20T09:58:02.885Z,14.80
2023-03-20T10:00:35.665Z,14.70
2023-03-20T10:03:09.229Z,14.70
2023-03-20T10:05:47.356Z,14.70
2023-03-20T10:08:19.893Z,14.60
2023-03-20T10:10:53.575Z,14.50
2023-03-20T10:14:05.811Z,14.50
2023-03-20T10:16:51.737Z,14.50
2023-03-20T10:19:28.824Z,14.50
2023-03-20T10:22:07.312Z,14.50
2023-03-20T10:24:42.749Z,14.50
2023-03-20T10:27:23.661Z,14.40
2023-03-20T10:30:14.318Z,14.40
2023-03-20T10:32:53.649Z,14.40
2023-03-20T10:35:35.367Z,14.30
2023-03-20T10:38:25.842Z,14.30
2023-03-20T10:40:57.878Z,14.30
2023-03-20T10:43:32.918Z,14.30
2023-03-20T10:46:06.181Z,14.40
2023-03-20T10:48:41.952Z,14.40
2023-03-20T10:51:17.466Z,14.50
2023-03-20T10:53:50.316Z,14.70
2023-03-20T10:56:31.594Z,14.80
2023-03-20T10:59:06.296Z,15.00
2023-03-20T11:01:35.929Z,15.20
2023-03-20T11:04:04.611Z,15.30
2023-03-20T11:06:40.342Z,15.30
2023-03-20T11:09:21.278Z,15.30
2023-03-20T11:11:53.958Z,15.40
2023-03-20T11:14:25.150Z,15.50
2023-03-20T11:16:55.585Z,15.60
2023-03-20T11:19:25.820Z,15.60
2023-03-20T11:21:57.183Z,15.70
2023-03-20T11:24:39.879Z,15.70
2023-03-20T11:27:11.790Z,15.70
2023-03-20T11:29:45.188Z,15.80
2023-03-20T11:32:29.794Z,15.80
2023-03-20T11:35:12.138Z,15.80
2023-03-20T11:37:47.511Z,16.00
2023-03-20T11:40:23.930Z,16.00
2023-03-20T11:42:58.718Z,16.20
2023-03-20T11:45:27.309Z,16.20
2023-03-20T11:47:58.513Z,16.30
2023-03-20T11:50:32.641Z,16.40
2023-03-20T11:53:03.020Z,16.30
2023-03-20T11:55:36.765Z,16.30
2023-03-20T11:58:08.055Z,16.30
2023-03-20T12:00:40.547Z,16.40
2023-03-20T12:03:43.813Z,16.30
2023-03-20T12:06:18.144Z,16.20
2023-03-20T12:08:55.067Z,16.10
2023-03-20T12:11:55.338Z,15.90
2023-03-20T12:14:32.108Z,16.00
2023-03-20T12:17:30.334Z,16.00
2023-03-20T12:20:06.976Z,16.00
2023-03-20T12:22:43.834Z,15.90
2023-03-20T12:25:24.085Z,15.90
2023-03-20T12:28:04.178Z,16.00
2023-03-20T12:30:53.546Z,16.10
2023-03-20T12:33:41.385Z,16.20
2023-03-20T12:36:16.673Z,16.40
2023-03-20T12:38:45.964Z,16.60
2023-03-20T12:41:21.346Z,16.80
2023-03-20T12:44:19.910Z,17.10
2023-03-20T12:47:04.872Z,17.50
2023-03-20T12:49:50.117Z,18.00
2023-03-20T12:52:33.755Z,18.10
2023-03-20T12:55:18.124Z,18.00
2023-03-20T12:58:02.752Z,17.70
2023-03-20T13:00:39.477Z,17.40
2023-03-20T13:03:29.252Z,17.20
2023-03-20T13:06:15.453Z,16.90
2023-03-20T13:09:06.437Z,16.70
2023-03-20T13:11:45.946Z,16.50
2023-03-20T13:14:27.716Z,16.30
2023-03-20T13:17:06.769Z,16.10
2023-03-20T13:19:45.404Z,16.00
2023-03-20T13:22:24.327Z,16.00
2023-03-20T13:25:04.827Z,16.00
2023-03-20T13:27:41.920Z,15.90
2023-03-20T13:30:24.588Z,15.80
2023-03-20T13:33:16.033Z,15.80
2023-03-20T13:35:55.757Z,15.70
2023-03-20T13:38:29.336Z,15.70
2023-03-20T13:41:05.188Z,15.60
2023-03-20T13:43:41.082Z,15.50
2023-03-20T13:46:13.998Z,15.50
2023-03-20T13:48:46.178Z,15.40
2023-03-20T13:51:30.547Z,15.40
2023-03-20T13:54:27.642Z,15.30
2023-03-20T13:57:14.716Z,15.20
2023-03-20T13:59:58.732Z,15.20
2023-03-20T14:02:42.014Z,15.20
2023-03-20T14:05:21.522Z,15.10
2023-03-20T14:07:55.929Z,15.10
2023-03-20T14:10:40.847Z,15.10
2023-03-20T14:13:18.061Z,15.20
2023-03-20T14:15:56.309Z,15.30
2023-03-20T14:18:27.400Z,15.30
2023-03-20T14:21:02.723Z,15.30
2023-03-20T14:23:37.774Z,15.40
2023-03-20T14:26:10.546Z,15.40
2023-03-20T14:28:54.432Z,15.40
2023-03-20T14:31:28.083Z,15.40
2023-03-20T14:34:09.847Z,15.40
2023-03-20T14:36:57.818Z,15.40
2023-03-20T14:40:02.368Z,15.50
2023-03-20T14:42:47.960Z,15.50
2023-03-20T14:45:37.451Z,15.70
2023-03-20T14:48:18.085Z,15.70
2023-03-20T14:51:08.275Z,15.60
2023-03-20T14:53:41.025Z,15.60
2023-03-20T14:56:12.989Z,15.60
2023-03-20T14:58:57.826Z,15.40
2023-03-20T15:01:41.753Z,15.30
2023-03-20T15:04:23.699Z,15.20
2023-03-20T15:07:00.375Z,15.10
2023-03-20T15:09:35.658Z,15.00
2023-03-20T15:12:05.876Z,15.00
2023-03-20T15:14:46.005Z,15.00
2023-03-20T15:17:24.375Z,15.00
2023-03-20T15:20:01.844Z,15.10
2023-03-20T15:22:30.329Z,15.10
2023-03-20T15:25:00.118Z,15.20
2023-03-20T15:27:30.701Z,15.20
2023-03-20T15:30:02.350Z,15.30
2023-03-20T15:32:30.940Z,15.30
2023-03-20T15:34:59.389Z,15.30
2023-03-20T15:37:28.709Z,15.30
2023-03-20T15:39:59.163Z,15.30
2023-03-20T15:42:29.008Z,15.30
2023-03-20T15:44:57.777Z,15.20
2023-03-20T15:47:27.113Z,15.10
2023-03-20T15:49:57.922Z,15.10
2023-03-20T15:52:32.659Z,15.00
2023-03-20T15:55:07.420Z,15.00
2023-03-20T15:57:41.595Z,15.00
2023-03-20T16:00:18.163Z,15.00
2023-03-20T16:02:48.953Z,15.10
2023-03-20T16:05:20.058Z,15.10
2023-03-20T16:07:48.368Z,15.10
2023-03-20T16:10:23.780Z,15.10
2023-03-20T16:12:55.421Z,15.00
2023-03-20T16:15:31.224Z,15.00
2023-03-20T16:18:03.767Z,14.90
2023-03-20T16:20:38.996Z,14.90
2023-03-20T16:23:10.796Z,14.90
2023-03-20T16:25:39.630Z,14.90
2023-03-20T16:28:09.312Z,14.80
2023-03-20T16:30:38.242Z,14.70
2023-03-20T16:33:13.962Z,14.60
2023-03-20T16:35:48.382Z,14.50
2023-03-20T16:38:25.599Z,14.30
2023-03-20T16:40:58.322Z,14.30
2023-03-20T16:43:32.668Z,14.20
2023-03-20T16:46:07.482Z,14.10
2023-03-20T16:48:37.736Z,14.00
2023-03-20T16:51:18.806Z,13.90
2023-03-20T16:53:50.686Z,13.80
2023-03-20T16:56:28.470Z,13.60
2023-03-20T16:58:58.482Z,13.50
2023-03-20T17:01:29.712Z,13.40
2023-03-20T17:04:12.297Z,13.30
2023-03-20T17:06:48.564Z,13.20
2023-03-20T17:09:26.791Z,13.10
2023-03-20T17:12:04.308Z,13.10
2023-03-20T17:14:34.175Z,13.00
2023-03-20T17:17:02.529Z,12.80
2023-03-20T17:19:33.957Z,12.70
2023-03-20T17:22:05.606Z,12.60
2023-03-20T17:24:33.849Z,12.50
2023-03-20T17:27:02.114Z,12.40
2023-03-20T17:29:30.382Z,12.30
2023-03-20T17:32:00.126Z,12.20
2023-03-20T17:34:28.485Z,12.10
2023-03-20T17:36:57.363Z,12.00
2023-03-20T17:39:25.535Z,12.00
2023-03-20T17:41:53.767Z,11.90
2023-03-20T17:44:22.037Z,11.80
2023-03-20T17:46:58.460Z,11.70
2023-03-20T17:49:28.737Z,11.60
2023-03-20T17:51:57.678Z,11.50
2023-03-20T17:54:26.232Z,11.40
2023-03-20T17:56:54.516Z,11.30
2023-03-20T17:59:22.754Z,11.30
2023-03-20T18:01:51.289Z,11.20
2023-03-20T18:04:19.931Z,11.10
2023-03-20T18:06:49.533Z,11.10
2023-03-20T18:09:17.898Z,11.00
2023-03-20T18:11:46.166Z,11.00
2023-03-20T18:14:17.906Z,10.90
2023-03-20T18:16:47.008Z,10.80
2023-03-20T18:19:25.727Z,10.80
2023-03-20T18:21:56.538Z,10.70
2023-03-20T18:24:25.277Z,10.70
2023-03-20T18:26:54.987Z,10.60
2023-03-20T18:29:23.278Z,10.60
2023-03-20T18:31:51.822Z,10.50
2023-03-20T18:34:20.231Z,10.50
2023-03-20T18:36:48.505Z,10.40
2023-03-20T18:39:20.915Z,10.40
2023-03-20T18:41:50.025Z,10.30
2023-03-20T18:44:18.427Z,10.30
2023-03-20T18:46:46.850Z,10.20
2023-03-20T18:49:17.216Z,10.20
2023-03-20T18:51:46.654Z,10.10
2023-03-20T18:54:15.044Z,10.10
2023-03-20T18:56:44.821Z,10.00
2023-03-20T18:59:14.395Z,10.00
2023-03-20T19:01:42.982Z,10.00
2023-03-20T19:04:11.453Z,9.90
2023-03-20T19:06:39.886Z,9.90
2023-03-20T19:09:10.762Z,9.90
2023-03-20T19:11:39.325Z,9.90
2023-03-20T19:14:09.202Z,9.90
2023-03-20T19:16:38.568Z,9.80
2023-03-20T19:19:09.764Z,9.80
2023-03-20T19:21:38.325Z,9.80
2023-03-20T19:24:08.688Z,9.80
2023-03-20T19:26:38.615Z,9.80
2023-03-20T19:29:10.567Z,9.80
2023-03-20T19:31:38.892Z,9.70
2023-03-20T19:34:44.474Z,9.80
2023-03-20T19:37:03.930Z,9.80
2023-03-20T19:39:32.293Z,9.80
2023-03-20T19:42:30.310Z,9.80
2023-03-20T19:44:57.871Z,9.80
2023-03-20T19:47:27.553Z,9.70
2023-03-20T19:49:55.793Z,9.70
2023-03-20T19:52:33.633Z,9.70
2023-03-20T19:55:04.713Z,9.70
2023-03-20T19:57:35.823Z,9.60
2023-03-20T20:00:54.742Z,9.60
2023-03-20T20:02:57.539Z,9.50
2023-03-20T20:05:35.611Z,9.50
2023-03-20T20:08:24.210Z,9.40
2023-03-20T20:11:06.877Z,9.30
2023-03-20T20:13:47.048Z,9.20
2023-03-20T20:16:55.634Z,9.10
2023-03-20T20:19:25.093Z,9.10
2023-03-20T20:24:42.130Z,9.00
2023-03-20T20:27:41.839Z,8.90
2023-03-20T20:30:23.062Z,8.90
2023-03-20T20:33:05.236Z,8.80
2023-03-20T20:36:19.944Z,8.80
2023-03-20T20:38:49.633Z,8.80
2023-03-20T20:44:15.525Z,8.80
2023-03-20T20:47:01.503Z,8.80
2023-03-20T20:49:40.623Z,8.80
2023-03-20T20:52:15.724Z,8.80
2023-03-20T20:55:07.878Z,8.80
2023-03-20T20:57:46.511Z,8.90
2023-03-20T21:00:50.606Z,8.90
2023-03-20T21:06:17.889Z,8.80
2023-03-20T21:08:46.317Z,8.80
2023-03-20T21:11:20.909Z,8.70
2023-03-20T21:13:54.921Z,8.60
2023-03-20T21:16:23.349Z,8.60
2023-03-20T21:18:55.094Z,8.50
2023-03-20T21:21:24.911Z,8.50
2023-03-20T21:23:53.502Z,8.40
2023-03-20T21:26:44.110Z,8.40
2023-03-20T21:29:16.086Z,8.40
2023-03-20T21:31:44.425Z,8.40
2023-03-20T21:34:14.323Z,8.40
2023-03-20T21:36:48.779Z,8.40
2023-03-20T21:39:22.900Z,8.40
2023-03-20T21:41:51.499Z,8.40
2023-03-20T21:44:48.750Z,8.40
2023-03-20T21:47:58.607Z,8.40
2023-03-20T21:59:11.070Z,8.40
2023-03-20T22:02:04.160Z,8.30
2023-03-20T22:07:51.921Z,8.30
2023-03-20T22:20:44.900Z,8.20
2023-03-20T22:25:18.481Z,8.20
2023-03-20T22:28:15.200Z,8.20
2023-03-20T22:34:09.173Z,8.20
2023-03-20T22:44:58.587Z,8.30
2023-03-20T22:47:21.875Z,8.30
2023-03-20T22:49:54.660Z,8.40
2023-03-20T22:52:34.800Z,8.40
2023-03-20T22:55:09.457Z,8.40
2023-03-20T22:57:45.526Z,8.40
2023-03-20T23:00:23.339Z,8.40
2023-03-20T23:02:55.001Z,8.40
2023-03-20T23:05:25.726Z,8.40
2023-03-20T23:07:53.952Z,8.40
2023-03-20T23:10:22.378Z,8.40
2023-03-20T23:12:50.570Z,8.40
2023-03-20T23:15:23.185Z,8.40
2023-03-20T23:17:53.904Z,8.40
2023-03-20T23:20:26.035Z,8.50
2023-03-20T23:22:55.162Z,8.50
2023-03-20T23:25:38.896Z,8.50
2023-03-20T23:28:09.123Z,8.50
2023-03-20T23:30:47.989Z,8.50
2023-03-20T23:33:20.195Z,8.50
2023-03-20T23:35:49.800Z,8.50
2023-03-20T23:38:19.471Z,8.50
2023-03-20T23:40:51.133Z,8.50
2023-03-20T23:43:20.581Z,8.50
2023-03-20T23:45:50.870Z,8.50
2023-03-20T23:48:19.733Z,8.50
2023-03-20T23:50:53.121Z,8.50
2023-03-20T23:53:22.028Z,8.50
2023-03-20T23:55:53.852Z,8.60
2023-03-20T23:58:24.326Z,8.60
